sensor_id;sensor_type;location;lat;lon;timestamp;P1;durP1;ratioP1;P2;durP2;ratioP2
16689;SDS011;8458;52.220;9.884;2022-08-05T00:00:08;2.10;;;1.15;;
16689;SDS011;8458;52.220;9.884;2022-08-05T00:02:36;1.38;;;1.20;;
16689;SDS011;8458;52.220;9.884;2022-08-05T00:05:03;1.58;;;1.30;;
16689;SDS011;8458;52.220;9.884;2022-08-05T00:07:30;2.15;;;1.38;;
16689;SDS011;8458;52.220;9.884;2022-08-05T00:09:56;1.35;;;1.20;;
16689;SDS011;8458;52.220;9.884;2022-08-05T00:12:23;1.50;;;1.35;;
16689;SDS011;8458;52.220;9.884;2022-08-05T00:14:50;2.42;;;1.60;;
16689;SDS011;8458;52.220;9.884;2022-08-05T00:17:17;2.05;;;1.63;;
16689;SDS011;8458;52.220;9.884;2022-08-05T00:19:44;2.37;;;1.53;;
16689;SDS011;8458;52.220;9.884;2022-08-05T00:22:10;2.00;;;1.80;;
16689;SDS011;8458;52.220;9.884;2022-08-05T00:24:37;4.20;;;1.93;;
16689;SDS011;8458;52.220;9.884;2022-08-05T00:27:03;3.83;;;2.07;;
16689;SDS011;8458;52.220;9.884;2022-08-05T00:29:30;2.00;;;1.80;;
16689;SDS011;8458;52.220;9.884;2022-08-05T00:31:58;2.07;;;1.77;;
16689;SDS011;8458;52.220;9.884;2022-08-05T00:34:25;2.13;;;1.90;;
16689;SDS011;8458;52.220;9.884;2022-08-05T00:36:52;3.43;;;2.10;;
16689;SDS011;8458;52.220;9.884;2022-08-05T00:39:18;1.87;;;1.77;;
16689;SDS011;8458;52.220;9.884;2022-08-05T00:41:46;4.00;;;2.27;;
16689;SDS011;8458;52.220;9.884;2022-08-05T00:44:13;3.00;;;2.70;;
16689;SDS011;8458;52.220;9.884;2022-08-05T00:46:40;3.47;;;2.70;;
16689;SDS011;8458;52.220;9.884;2022-08-05T00:49:08;3.27;;;2.97;;
16689;SDS011;8458;52.220;9.884;2022-08-05T00:51:35;4.03;;;3.30;;
16689;SDS011;8458;52.220;9.884;2022-08-05T00:54:01;3.80;;;3.40;;
16689;SDS011;8458;52.220;9.884;2022-08-05T00:56:28;3.90;;;3.57;;
16689;SDS011;8458;52.220;9.884;2022-08-05T00:58:54;4.47;;;3.20;;
16689;SDS011;8458;52.220;9.884;2022-08-05T01:01:21;5.17;;;3.90;;
16689;SDS011;8458;52.220;9.884;2022-08-05T01:03:47;5.63;;;4.50;;
16689;SDS011;8458;52.220;9.884;2022-08-05T01:06:15;5.00;;;3.97;;
16689;SDS011;8458;52.220;9.884;2022-08-05T01:08:42;4.80;;;4.40;;
16689;SDS011;8458;52.220;9.884;2022-08-05T01:11:10;8.00;;;4.97;;
16689;SDS011;8458;52.220;9.884;2022-08-05T01:13:40;5.77;;;5.10;;
16689;SDS011;8458;52.220;9.884;2022-08-05T01:16:16;7.17;;;6.47;;
16689;SDS011;8458;52.220;9.884;2022-08-05T01:18:53;6.73;;;6.13;;
16689;SDS011;8458;52.220;9.884;2022-08-05T01:21:32;6.23;;;5.73;;
16689;SDS011;8458;52.220;9.884;2022-08-05T01:24:21;10.57;;;5.87;;
16689;SDS011;8458;52.220;9.884;2022-08-05T01:27:08;6.50;;;5.90;;
16689;SDS011;8458;52.220;9.884;2022-08-05T01:29:46;6.13;;;5.63;;
16689;SDS011;8458;52.220;9.884;2022-08-05T01:32:17;7.20;;;6.50;;
16689;SDS011;8458;52.220;9.884;2022-08-05T01:34:49;7.70;;;6.73;;
16689;SDS011;8458;52.220;9.884;2022-08-05T01:37:21;7.23;;;6.53;;
16689;SDS011;8458;52.220;9.884;2022-08-05T01:39:54;7.50;;;6.90;;
16689;SDS011;8458;52.220;9.884;2022-08-05T01:42:23;7.80;;;7.20;;
16689;SDS011;8458;52.220;9.884;2022-08-05T01:44:52;8.07;;;7.37;;
16689;SDS011;8458;52.220;9.884;2022-08-05T01:47:21;8.20;;;7.40;;
16689;SDS011;8458;52.220;9.884;2022-08-05T01:49:50;8.93;;;7.70;;
16689;SDS011;8458;52.220;9.884;2022-08-05T01:52:18;9.03;;;8.23;;
16689;SDS011;8458;52.220;9.884;2022-08-05T01:54:48;9.43;;;8.57;;
16689;SDS011;8458;52.220;9.884;2022-08-05T01:57:25;9.37;;;8.47;;
16689;SDS011;8458;52.220;9.884;2022-08-05T01:59:59;8.83;;;8.00;;
16689;SDS011;8458;52.220;9.884;2022-08-05T02:02:28;9.13;;;8.37;;
16689;SDS011;8458;52.220;9.884;2022-08-05T02:04:57;9.60;;;8.70;;
16689;SDS011;8458;52.220;9.884;2022-08-05T02:07:26;9.70;;;8.93;;
16689;SDS011;8458;52.220;9.884;2022-08-05T02:09:53;10.03;;;9.27;;
16689;SDS011;8458;52.220;9.884;2022-08-05T02:12:20;10.07;;;9.03;;
16689;SDS011;8458;52.220;9.884;2022-08-05T02:14:51;10.00;;;9.10;;
16689;SDS011;8458;52.220;9.884;2022-08-05T02:17:26;10.73;;;9.83;;
16689;SDS011;8458;52.220;9.884;2022-08-05T02:19:57;10.60;;;9.80;;
16689;SDS011;8458;52.220;9.884;2022-08-05T02:22:27;12.53;;;10.97;;
16689;SDS011;8458;52.220;9.884;2022-08-05T02:24:57;10.63;;;9.63;;
16689;SDS011;8458;52.220;9.884;2022-08-05T02:27:27;10.07;;;9.13;;
16689;SDS011;8458;52.220;9.884;2022-08-05T02:29:55;10.30;;;9.23;;
16689;SDS011;8458;52.220;9.884;2022-08-05T02:32:24;10.47;;;9.57;;
16689;SDS011;8458;52.220;9.884;2022-08-05T02:34:53;9.77;;;8.97;;
16689;SDS011;8458;52.220;9.884;2022-08-05T02:37:21;9.70;;;8.80;;
16689;SDS011;8458;52.220;9.884;2022-08-05T02:39:49;9.93;;;9.13;;
16689;SDS011;8458;52.220;9.884;2022-08-05T02:42:16;9.63;;;8.67;;
16689;SDS011;8458;52.220;9.884;2022-08-05T02:44:44;10.73;;;9.83;;
16689;SDS011;8458;52.220;9.884;2022-08-05T02:47:12;11.20;;;10.30;;
16689;SDS011;8458;52.220;9.884;2022-08-05T02:49:42;12.70;;;11.60;;
16689;SDS011;8458;52.220;9.884;2022-08-05T02:52:13;11.43;;;10.13;;
16689;SDS011;8458;52.220;9.884;2022-08-05T02:54:42;12.47;;;11.10;;
16689;SDS011;8458;52.220;9.884;2022-08-05T02:57:12;11.57;;;10.67;;
16689;SDS011;8458;52.220;9.884;2022-08-05T02:59:39;11.90;;;10.43;;
16689;SDS011;8458;52.220;9.884;2022-08-05T03:02:08;12.17;;;11.27;;
16689;SDS011;8458;52.220;9.884;2022-08-05T03:04:37;12.00;;;11.00;;
16689;SDS011;8458;52.220;9.884;2022-08-05T03:07:06;11.43;;;10.43;;
16689;SDS011;8458;52.220;9.884;2022-08-05T03:09:34;12.83;;;11.60;;
16689;SDS011;8458;52.220;9.884;2022-08-05T03:12:01;12.20;;;11.20;;
16689;SDS011;8458;52.220;9.884;2022-08-05T03:14:28;11.83;;;10.70;;
16689;SDS011;8458;52.220;9.884;2022-08-05T03:16:55;12.03;;;11.13;;
16689;SDS011;8458;52.220;9.884;2022-08-05T03:19:21;12.47;;;11.57;;
16689;SDS011;8458;52.220;9.884;2022-08-05T03:21:48;12.47;;;11.27;;
16689;SDS011;8458;52.220;9.884;2022-08-05T03:24:16;11.90;;;10.80;;
16689;SDS011;8458;52.220;9.884;2022-08-05T03:26:43;11.87;;;10.77;;
16689;SDS011;8458;52.220;9.884;2022-08-05T03:29:10;11.17;;;10.27;;
16689;SDS011;8458;52.220;9.884;2022-08-05T03:31:37;11.63;;;10.83;;
16689;SDS011;8458;52.220;9.884;2022-08-05T03:34:03;12.10;;;10.80;;
16689;SDS011;8458;52.220;9.884;2022-08-05T03:36:30;11.77;;;10.77;;
16689;SDS011;8458;52.220;9.884;2022-08-05T03:38:57;11.03;;;10.23;;
16689;SDS011;8458;52.220;9.884;2022-08-05T03:41:25;11.60;;;10.67;;
16689;SDS011;8458;52.220;9.884;2022-08-05T03:43:51;11.60;;;10.70;;
16689;SDS011;8458;52.220;9.884;2022-08-05T03:46:18;11.03;;;10.20;;
16689;SDS011;8458;52.220;9.884;2022-08-05T03:48:45;11.53;;;10.53;;
16689;SDS011;8458;52.220;9.884;2022-08-05T03:51:12;11.20;;;10.40;;
16689;SDS011;8458;52.220;9.884;2022-08-05T03:53:43;11.93;;;10.93;;
16689;SDS011;8458;52.220;9.884;2022-08-05T03:56:16;11.00;;;10.07;;
16689;SDS011;8458;52.220;9.884;2022-08-05T03:58:52;11.23;;;10.13;;
16689;SDS011;8458;52.220;9.884;2022-08-05T04:01:22;10.73;;;9.83;;
16689;SDS011;8458;52.220;9.884;2022-08-05T04:03:50;10.63;;;9.73;;
16689;SDS011;8458;52.220;9.884;2022-08-05T04:06:18;11.10;;;10.40;;
16689;SDS011;8458;52.220;9.884;2022-08-05T04:08:45;10.67;;;9.97;;
16689;SDS011;8458;52.220;9.884;2022-08-05T04:11:12;10.57;;;9.67;;
16689;SDS011;8458;52.220;9.884;2022-08-05T04:13:40;10.60;;;9.80;;
16689;SDS011;8458;52.220;9.884;2022-08-05T04:16:08;10.83;;;10.03;;
16689;SDS011;8458;52.220;9.884;2022-08-05T04:18:35;10.73;;;9.93;;
16689;SDS011;8458;52.220;9.884;2022-08-05T04:21:03;11.87;;;10.73;;
16689;SDS011;8458;52.220;9.884;2022-08-05T04:23:30;10.67;;;9.73;;
16689;SDS011;8458;52.220;9.884;2022-08-05T04:25:59;10.90;;;10.00;;
16689;SDS011;8458;52.220;9.884;2022-08-05T04:28:25;11.13;;;10.23;;
16689;SDS011;8458;52.220;9.884;2022-08-05T04:30:52;10.60;;;9.77;;
16689;SDS011;8458;52.220;9.884;2022-08-05T04:33:20;11.23;;;10.33;;
16689;SDS011;8458;52.220;9.884;2022-08-05T04:35:47;10.67;;;9.87;;
16689;SDS011;8458;52.220;9.884;2022-08-05T04:38:13;12.03;;;11.03;;
16689;SDS011;8458;52.220;9.884;2022-08-05T04:40:41;12.50;;;11.50;;
16689;SDS011;8458;52.220;9.884;2022-08-05T04:43:08;13.23;;;12.00;;
16689;SDS011;8458;52.220;9.884;2022-08-05T04:45:35;11.53;;;10.77;;
16689;SDS011;8458;52.220;9.884;2022-08-05T04:48:02;13.13;;;12.03;;
16689;SDS011;8458;52.220;9.884;2022-08-05T04:50:38;13.90;;;12.70;;
16689;SDS011;8458;52.220;9.884;2022-08-05T04:53:06;15.87;;;13.50;;
16689;SDS011;8458;52.220;9.884;2022-08-05T04:55:33;14.63;;;13.53;;
16689;SDS011;8458;52.220;9.884;2022-08-05T04:58:00;14.30;;;13.20;;
16689;SDS011;8458;52.220;9.884;2022-08-05T05:00:26;13.47;;;12.53;;
16689;SDS011;8458;52.220;9.884;2022-08-05T05:02:53;14.17;;;13.00;;
16689;SDS011;8458;52.220;9.884;2022-08-05T05:05:19;13.13;;;12.13;;
16689;SDS011;8458;52.220;9.884;2022-08-05T05:07:47;13.93;;;12.83;;
16689;SDS011;8458;52.220;9.884;2022-08-05T05:10:14;13.57;;;12.47;;
16689;SDS011;8458;52.220;9.884;2022-08-05T05:12:40;13.60;;;12.63;;
16689;SDS011;8458;52.220;9.884;2022-08-05T05:15:07;13.30;;;12.30;;
16689;SDS011;8458;52.220;9.884;2022-08-05T05:17:37;13.57;;;12.27;;
16689;SDS011;8458;52.220;9.884;2022-08-05T05:20:05;13.90;;;12.77;;
16689;SDS011;8458;52.220;9.884;2022-08-05T05:22:33;13.17;;;12.00;;
16689;SDS011;8458;52.220;9.884;2022-08-05T05:25:00;11.87;;;10.87;;
16689;SDS011;8458;52.220;9.884;2022-08-05T05:27:28;12.90;;;11.93;;
16689;SDS011;8458;52.220;9.884;2022-08-05T05:29:55;13.90;;;12.70;;
16689;SDS011;8458;52.220;9.884;2022-08-05T05:32:22;13.57;;;12.43;;
16689;SDS011;8458;52.220;9.884;2022-08-05T05:34:48;14.73;;;13.43;;
16689;SDS011;8458;52.220;9.884;2022-08-05T05:37:15;13.43;;;12.53;;
16689;SDS011;8458;52.220;9.884;2022-08-05T05:39:41;14.80;;;13.60;;
16689;SDS011;8458;52.220;9.884;2022-08-05T05:42:09;15.30;;;14.00;;
16689;SDS011;8458;52.220;9.884;2022-08-05T05:44:36;15.00;;;13.63;;
16689;SDS011;8458;52.220;9.884;2022-08-05T05:47:02;15.60;;;14.30;;
16689;SDS011;8458;52.220;9.884;2022-08-05T05:49:29;13.97;;;12.87;;
16689;SDS011;8458;52.220;9.884;2022-08-05T05:51:56;15.37;;;14.07;;
16689;SDS011;8458;52.220;9.884;2022-08-05T05:54:22;14.83;;;13.77;;
16689;SDS011;8458;52.220;9.884;2022-08-05T05:56:49;13.47;;;12.47;;
16689;SDS011;8458;52.220;9.884;2022-08-05T05:59:17;13.63;;;12.53;;
16689;SDS011;8458;52.220;9.884;2022-08-05T06:01:43;13.63;;;12.67;;
16689;SDS011;8458;52.220;9.884;2022-08-05T06:04:10;13.70;;;12.77;;
16689;SDS011;8458;52.220;9.884;2022-08-05T06:06:38;14.87;;;13.57;;
16689;SDS011;8458;52.220;9.884;2022-08-05T06:09:05;14.80;;;13.80;;
16689;SDS011;8458;52.220;9.884;2022-08-05T06:11:32;14.90;;;13.53;;
16689;SDS011;8458;52.220;9.884;2022-08-05T06:13:58;15.50;;;14.20;;
16689;SDS011;8458;52.220;9.884;2022-08-05T06:16:26;14.20;;;13.10;;
16689;SDS011;8458;52.220;9.884;2022-08-05T06:18:53;13.77;;;12.67;;
16689;SDS011;8458;52.220;9.884;2022-08-05T06:21:20;13.70;;;12.80;;
16689;SDS011;8458;52.220;9.884;2022-08-05T06:23:46;14.20;;;13.00;;
16689;SDS011;8458;52.220;9.884;2022-08-05T06:26:13;14.20;;;13.20;;
16689;SDS011;8458;52.220;9.884;2022-08-05T06:28:39;15.20;;;14.00;;
16689;SDS011;8458;52.220;9.884;2022-08-05T06:31:06;14.70;;;13.50;;
16689;SDS011;8458;52.220;9.884;2022-08-05T06:33:34;16.67;;;15.43;;
16689;SDS011;8458;52.220;9.884;2022-08-05T06:36:00;15.07;;;14.07;;
16689;SDS011;8458;52.220;9.884;2022-08-05T06:38:26;13.90;;;12.83;;
16689;SDS011;8458;52.220;9.884;2022-08-05T06:40:53;13.93;;;12.97;;
16689;SDS011;8458;52.220;9.884;2022-08-05T06:43:19;12.03;;;11.33;;
16689;SDS011;8458;52.220;9.884;2022-08-05T06:45:46;12.03;;;11.13;;
16689;SDS011;8458;52.220;9.884;2022-08-05T06:48:13;10.57;;;9.93;;
16689;SDS011;8458;52.220;9.884;2022-08-05T06:50:41;11.07;;;10.27;;
16689;SDS011;8458;52.220;9.884;2022-08-05T06:53:08;9.60;;;9.00;;
16689;SDS011;8458;52.220;9.884;2022-08-05T06:55:34;9.37;;;8.77;;
16689;SDS011;8458;52.220;9.884;2022-08-05T06:58:00;9.03;;;8.33;;
16689;SDS011;8458;52.220;9.884;2022-08-05T07:00:27;8.53;;;8.00;;
16689;SDS011;8458;52.220;9.884;2022-08-05T07:02:55;8.37;;;7.70;;
16689;SDS011;8458;52.220;9.884;2022-08-05T07:05:21;8.80;;;8.20;;
16689;SDS011;8458;52.220;9.884;2022-08-05T07:07:49;10.10;;;9.33;;
16689;SDS011;8458;52.220;9.884;2022-08-05T07:10:16;9.20;;;8.53;;
16689;SDS011;8458;52.220;9.884;2022-08-05T07:12:43;9.40;;;8.73;;
16689;SDS011;8458;52.220;9.884;2022-08-05T07:15:27;9.93;;;8.70;;
16689;SDS011;8458;52.220;9.884;2022-08-05T07:18:07;9.00;;;8.30;;
16689;SDS011;8458;52.220;9.884;2022-08-05T07:20:34;8.10;;;7.40;;
16689;SDS011;8458;52.220;9.884;2022-08-05T07:23:02;8.20;;;7.67;;
16689;SDS011;8458;52.220;9.884;2022-08-05T07:25:28;8.20;;;7.57;;
16689;SDS011;8458;52.220;9.884;2022-08-05T07:27:55;8.23;;;7.63;;
16689;SDS011;8458;52.220;9.884;2022-08-05T07:30:21;8.07;;;7.47;;
16689;SDS011;8458;52.220;9.884;2022-08-05T07:32:48;7.37;;;6.87;;
16689;SDS011;8458;52.220;9.884;2022-08-05T07:35:15;7.37;;;6.87;;
16689;SDS011;8458;52.220;9.884;2022-08-05T07:37:41;7.40;;;7.00;;
16689;SDS011;8458;52.220;9.884;2022-08-05T07:40:09;6.43;;;6.03;;
16689;SDS011;8458;52.220;9.884;2022-08-05T07:42:36;6.27;;;5.87;;
16689;SDS011;8458;52.220;9.884;2022-08-05T07:45:03;7.10;;;6.57;;
16689;SDS011;8458;52.220;9.884;2022-08-05T07:47:30;6.50;;;6.00;;
16689;SDS011;8458;52.220;9.884;2022-08-05T07:49:56;6.43;;;5.93;;
16689;SDS011;8458;52.220;9.884;2022-08-05T07:52:23;6.47;;;6.07;;
16689;SDS011;8458;52.220;9.884;2022-08-05T07:54:49;6.23;;;5.80;;
16689;SDS011;8458;52.220;9.884;2022-08-05T07:57:17;6.20;;;5.70;;
16689;SDS011;8458;52.220;9.884;2022-08-05T07:59:44;5.70;;;5.40;;
16689;SDS011;8458;52.220;9.884;2022-08-05T08:02:10;6.13;;;5.73;;
16689;SDS011;8458;52.220;9.884;2022-08-05T08:04:37;5.60;;;5.30;;
16689;SDS011;8458;52.220;9.884;2022-08-05T08:07:03;5.80;;;5.40;;
16689;SDS011;8458;52.220;9.884;2022-08-05T08:09:30;5.83;;;5.43;;
16689;SDS011;8458;52.220;9.884;2022-08-05T08:11:56;6.40;;;5.90;;
16689;SDS011;8458;52.220;9.884;2022-08-05T08:14:24;6.30;;;5.90;;
16689;SDS011;8458;52.220;9.884;2022-08-05T08:16:51;6.07;;;5.67;;
16689;SDS011;8458;52.220;9.884;2022-08-05T08:19:17;6.63;;;6.23;;
16689;SDS011;8458;52.220;9.884;2022-08-05T08:21:44;6.97;;;6.43;;
16689;SDS011;8458;52.220;9.884;2022-08-05T08:24:10;6.60;;;6.30;;
16689;SDS011;8458;52.220;9.884;2022-08-05T08:26:37;7.63;;;7.13;;
16689;SDS011;8458;52.220;9.884;2022-08-05T08:29:04;7.80;;;7.30;;
16689;SDS011;8458;52.220;9.884;2022-08-05T08:31:32;7.67;;;7.17;;
16689;SDS011;8458;52.220;9.884;2022-08-05T08:33:58;7.83;;;7.33;;
16689;SDS011;8458;52.220;9.884;2022-08-05T08:36:25;7.90;;;7.40;;
16689;SDS011;8458;52.220;9.884;2022-08-05T08:38:51;8.23;;;7.53;;
16689;SDS011;8458;52.220;9.884;2022-08-05T08:41:19;6.47;;;5.97;;
16689;SDS011;8458;52.220;9.884;2022-08-05T08:43:48;5.50;;;5.10;;
16689;SDS011;8458;52.220;9.884;2022-08-05T08:46:16;5.13;;;4.77;;
16689;SDS011;8458;52.220;9.884;2022-08-05T08:48:45;4.77;;;4.47;;
16689;SDS011;8458;52.220;9.884;2022-08-05T08:51:13;4.73;;;4.33;;
16689;SDS011;8458;52.220;9.884;2022-08-05T08:53:43;4.50;;;4.20;;
16689;SDS011;8458;52.220;9.884;2022-08-05T08:56:10;4.77;;;4.47;;
16689;SDS011;8458;52.220;9.884;2022-08-05T08:58:36;4.70;;;4.40;;
16689;SDS011;8458;52.220;9.884;2022-08-05T09:01:04;5.20;;;4.70;;
16689;SDS011;8458;52.220;9.884;2022-08-05T09:03:32;4.80;;;4.50;;
16689;SDS011;8458;52.220;9.884;2022-08-05T09:06:01;4.70;;;4.37;;
16689;SDS011;8458;52.220;9.884;2022-08-05T09:08:27;4.57;;;4.17;;
16689;SDS011;8458;52.220;9.884;2022-08-05T09:10:54;4.40;;;4.10;;
16689;SDS011;8458;52.220;9.884;2022-08-05T09:13:21;4.90;;;4.50;;
16689;SDS011;8458;52.220;9.884;2022-08-05T09:15:48;4.90;;;4.60;;
16689;SDS011;8458;52.220;9.884;2022-08-05T09:18:14;5.33;;;4.93;;
16689;SDS011;8458;52.220;9.884;2022-08-05T09:20:42;6.30;;;5.90;;
16689;SDS011;8458;52.220;9.884;2022-08-05T09:23:12;6.60;;;6.10;;
16689;SDS011;8458;52.220;9.884;2022-08-05T09:25:42;7.10;;;6.70;;
16689;SDS011;8458;52.220;9.884;2022-08-05T09:28:14;6.97;;;6.57;;
16689;SDS011;8458;52.220;9.884;2022-08-05T09:30:45;7.27;;;6.83;;
16689;SDS011;8458;52.220;9.884;2022-08-05T09:33:18;7.57;;;7.07;;
16689;SDS011;8458;52.220;9.884;2022-08-05T09:35:52;7.10;;;6.70;;
16689;SDS011;8458;52.220;9.884;2022-08-05T09:38:23;7.20;;;6.80;;
16689;SDS011;8458;52.220;9.884;2022-08-05T09:40:50;7.50;;;7.00;;
16689;SDS011;8458;52.220;9.884;2022-08-05T09:43:25;7.73;;;7.33;;
16689;SDS011;8458;52.220;9.884;2022-08-05T09:45:53;7.77;;;7.27;;
16689;SDS011;8458;52.220;9.884;2022-08-05T09:48:23;7.60;;;7.07;;
16689;SDS011;8458;52.220;9.884;2022-08-05T09:50:52;7.37;;;6.97;;
16689;SDS011;8458;52.220;9.884;2022-08-05T09:53:20;8.03;;;7.53;;
16689;SDS011;8458;52.220;9.884;2022-08-05T09:55:51;8.57;;;8.00;;
16689;SDS011;8458;52.220;9.884;2022-08-05T09:58:19;8.10;;;7.53;;
16689;SDS011;8458;52.220;9.884;2022-08-05T10:00:51;8.27;;;7.83;;
16689;SDS011;8458;52.220;9.884;2022-08-05T10:03:19;8.00;;;7.47;;
16689;SDS011;8458;52.220;9.884;2022-08-05T10:05:46;7.70;;;7.30;;
16689;SDS011;8458;52.220;9.884;2022-08-05T10:08:25;7.50;;;7.00;;
16689;SDS011;8458;52.220;9.884;2022-08-05T10:10:53;7.10;;;6.43;;
16689;SDS011;8458;52.220;9.884;2022-08-05T10:13:30;6.47;;;6.07;;
16689;SDS011;8458;52.220;9.884;2022-08-05T10:15:58;7.03;;;6.53;;
16689;SDS011;8458;52.220;9.884;2022-08-05T10:18:24;7.23;;;6.73;;
16689;SDS011;8458;52.220;9.884;2022-08-05T10:20:52;7.40;;;6.90;;
16689;SDS011;8458;52.220;9.884;2022-08-05T10:23:23;7.50;;;7.00;;
16689;SDS011;8458;52.220;9.884;2022-08-05T10:25:51;7.60;;;7.10;;
16689;SDS011;8458;52.220;9.884;2022-08-05T10:28:20;7.60;;;7.20;;
16689;SDS011;8458;52.220;9.884;2022-08-05T10:30:48;7.43;;;6.93;;
16689;SDS011;8458;52.220;9.884;2022-08-05T10:33:16;7.47;;;6.97;;
16689;SDS011;8458;52.220;9.884;2022-08-05T10:35:43;7.17;;;6.57;;
16689;SDS011;8458;52.220;9.884;2022-08-05T10:38:09;6.27;;;5.83;;
16689;SDS011;8458;52.220;9.884;2022-08-05T10:40:38;6.60;;;6.20;;
16689;SDS011;8458;52.220;9.884;2022-08-05T10:43:12;6.27;;;5.87;;
16689;SDS011;8458;52.220;9.884;2022-08-05T10:45:56;5.93;;;5.53;;
16689;SDS011;8458;52.220;9.884;2022-08-05T10:48:30;5.87;;;5.47;;
16689;SDS011;8458;52.220;9.884;2022-08-05T10:50:59;6.68;;;6.30;;
16689;SDS011;8458;52.220;9.884;2022-08-05T10:53:38;6.47;;;6.07;;
16689;SDS011;8458;52.220;9.884;2022-08-05T10:56:07;5.53;;;5.13;;
16689;SDS011;8458;52.220;9.884;2022-08-05T10:58:46;4.50;;;4.10;;
16689;SDS011;8458;52.220;9.884;2022-08-05T11:01:13;3.40;;;3.20;;
16689;SDS011;8458;52.220;9.884;2022-08-05T11:06:25;2.77;;;2.50;;
16689;SDS011;8458;52.220;9.884;2022-08-05T11:09:11;2.57;;;2.27;;
16689;SDS011;8458;52.220;9.884;2022-08-05T11:11:47;2.33;;;1.83;;
16689;SDS011;8458;52.220;9.884;2022-08-05T11:14:22;2.47;;;1.80;;
16689;SDS011;8458;52.220;9.884;2022-08-05T11:19:56;2.10;;;1.40;;
16689;SDS011;8458;52.220;9.884;2022-08-05T11:22:36;1.57;;;1.47;;
16689;SDS011;8458;52.220;9.884;2022-08-05T11:25:25;2.27;;;1.80;;
16689;SDS011;8458;52.220;9.884;2022-08-05T11:27:53;2.70;;;1.60;;
16689;SDS011;8458;52.220;9.884;2022-08-05T11:30:21;1.97;;;1.83;;
16689;SDS011;8458;52.220;9.884;2022-08-05T11:32:48;2.43;;;1.97;;
16689;SDS011;8458;52.220;9.884;2022-08-05T11:38:17;3.03;;;2.50;;
16689;SDS011;8458;52.220;9.884;2022-08-05T11:40:59;2.83;;;2.00;;
16689;SDS011;8458;52.220;9.884;2022-08-05T11:43:26;2.67;;;2.47;;
16689;SDS011;8458;52.220;9.884;2022-08-05T11:45:56;2.57;;;2.37;;
16689;SDS011;8458;52.220;9.884;2022-08-05T11:48:22;3.13;;;2.80;;
16689;SDS011;8458;52.220;9.884;2022-08-05T11:50:50;2.83;;;2.63;;
16689;SDS011;8458;52.220;9.884;2022-08-05T11:53:18;3.03;;;2.73;;
16689;SDS011;8458;52.220;9.884;2022-08-05T11:55:52;2.80;;;2.50;;
16689;SDS011;8458;52.220;9.884;2022-08-05T11:58:34;2.90;;;2.70;;
16689;SDS011;8458;52.220;9.884;2022-08-05T12:01:04;3.00;;;2.70;;
16689;SDS011;8458;52.220;9.884;2022-08-05T12:03:42;3.37;;;2.67;;
16689;SDS011;8458;52.220;9.884;2022-08-05T12:06:10;2.60;;;2.40;;
16689;SDS011;8458;52.220;9.884;2022-08-05T12:08:41;3.03;;;2.83;;
16689;SDS011;8458;52.220;9.884;2022-08-05T12:11:09;3.03;;;2.83;;
16689;SDS011;8458;52.220;9.884;2022-08-05T12:13:38;3.23;;;2.63;;
16689;SDS011;8458;52.220;9.884;2022-08-05T12:16:07;3.03;;;2.70;;
16689;SDS011;8458;52.220;9.884;2022-08-05T12:18:35;3.07;;;2.83;;
16689;SDS011;8458;52.220;9.884;2022-08-05T12:21:08;3.50;;;2.90;;
16689;SDS011;8458;52.220;9.884;2022-08-05T12:23:35;3.27;;;2.97;;
16689;SDS011;8458;52.220;9.884;2022-08-05T12:26:02;4.20;;;3.40;;
16689;SDS011;8458;52.220;9.884;2022-08-05T12:28:29;3.13;;;2.83;;
16689;SDS011;8458;52.220;9.884;2022-08-05T12:30:56;2.83;;;2.63;;
16689;SDS011;8458;52.220;9.884;2022-08-05T12:33:24;3.43;;;2.60;;
16689;SDS011;8458;52.220;9.884;2022-08-05T12:35:52;3.30;;;3.10;;
16689;SDS011;8458;52.220;9.884;2022-08-05T12:38:19;3.30;;;3.03;;
16689;SDS011;8458;52.220;9.884;2022-08-05T12:40:47;4.37;;;3.97;;
16689;SDS011;8458;52.220;9.884;2022-08-05T12:43:13;3.63;;;3.43;;
16689;SDS011;8458;52.220;9.884;2022-08-05T12:45:49;3.70;;;3.50;;
16689;SDS011;8458;52.220;9.884;2022-08-05T12:48:16;2.97;;;2.70;;
16689;SDS011;8458;52.220;9.884;2022-08-05T12:50:44;3.20;;;2.90;;
16689;SDS011;8458;52.220;9.884;2022-08-05T12:53:39;2.37;;;2.23;;
16689;SDS011;8458;52.220;9.884;2022-08-05T12:56:14;2.10;;;2.00;;
16689;SDS011;8458;52.220;9.884;2022-08-05T12:58:44;2.10;;;1.90;;
16689;SDS011;8458;52.220;9.884;2022-08-05T13:01:12;1.80;;;1.70;;
16689;SDS011;8458;52.220;9.884;2022-08-05T13:03:39;1.70;;;1.60;;
16689;SDS011;8458;52.220;9.884;2022-08-05T13:06:08;1.90;;;1.70;;
16689;SDS011;8458;52.220;9.884;2022-08-05T13:08:37;2.00;;;1.90;;
16689;SDS011;8458;52.220;9.884;2022-08-05T13:11:04;1.83;;;1.67;;
16689;SDS011;8458;52.220;9.884;2022-08-05T13:13:31;2.17;;;1.97;;
16689;SDS011;8458;52.220;9.884;2022-08-05T13:15:58;2.57;;;2.00;;
16689;SDS011;8458;52.220;9.884;2022-08-05T13:18:35;1.90;;;1.50;;
16689;SDS011;8458;52.220;9.884;2022-08-05T13:21:03;1.67;;;1.57;;
16689;SDS011;8458;52.220;9.884;2022-08-05T13:23:31;1.70;;;1.53;;
16689;SDS011;8458;52.220;9.884;2022-08-05T13:25:58;1.50;;;1.40;;
16689;SDS011;8458;52.220;9.884;2022-08-05T13:28:25;1.53;;;1.40;;
16689;SDS011;8458;52.220;9.884;2022-08-05T13:30:52;1.50;;;1.40;;
16689;SDS011;8458;52.220;9.884;2022-08-05T13:33:18;1.63;;;1.53;;
16689;SDS011;8458;52.220;9.884;2022-08-05T13:35:45;1.87;;;1.70;;
16689;SDS011;8458;52.220;9.884;2022-08-05T13:38:11;1.80;;;1.70;;
16689;SDS011;8458;52.220;9.884;2022-08-05T13:40:39;1.70;;;1.60;;
16689;SDS011;8458;52.220;9.884;2022-08-05T13:43:06;2.40;;;2.03;;
16689;SDS011;8458;52.220;9.884;2022-08-05T13:45:32;2.40;;;2.20;;
16689;SDS011;8458;52.220;9.884;2022-08-05T13:47:59;2.03;;;1.93;;
16689;SDS011;8458;52.220;9.884;2022-08-05T13:50:25;2.00;;;1.90;;
16689;SDS011;8458;52.220;9.884;2022-08-05T13:52:52;2.37;;;2.27;;
16689;SDS011;8458;52.220;9.884;2022-08-05T13:55:18;2.03;;;1.93;;
16689;SDS011;8458;52.220;9.884;2022-08-05T13:57:46;2.20;;;1.90;;
16689;SDS011;8458;52.220;9.884;2022-08-05T14:00:13;1.90;;;1.80;;
16689;SDS011;8458;52.220;9.884;2022-08-05T14:02:39;2.07;;;1.73;;
16689;SDS011;8458;52.220;9.884;2022-08-05T14:05:06;1.60;;;1.50;;
16689;SDS011;8458;52.220;9.884;2022-08-05T14:07:38;2.37;;;1.70;;
16689;SDS011;8458;52.220;9.884;2022-08-05T14:10:06;2.30;;;1.43;;
16689;SDS011;8458;52.220;9.884;2022-08-05T14:12:34;1.73;;;1.60;;
16689;SDS011;8458;52.220;9.884;2022-08-05T14:15:02;1.80;;;1.70;;
16689;SDS011;8458;52.220;9.884;2022-08-05T14:17:29;2.00;;;1.77;;
16689;SDS011;8458;52.220;9.884;2022-08-05T14:19:56;1.93;;;1.73;;
16689;SDS011;8458;52.220;9.884;2022-08-05T14:22:22;1.83;;;1.60;;
16689;SDS011;8458;52.220;9.884;2022-08-05T14:24:49;2.23;;;2.07;;
16689;SDS011;8458;52.220;9.884;2022-08-05T14:27:15;1.80;;;1.70;;
16689;SDS011;8458;52.220;9.884;2022-08-05T14:29:42;2.13;;;2.03;;
16689;SDS011;8458;52.220;9.884;2022-08-05T14:32:10;1.90;;;1.80;;
16689;SDS011;8458;52.220;9.884;2022-08-05T14:34:36;2.73;;;2.07;;
16689;SDS011;8458;52.220;9.884;2022-08-05T14:37:03;1.90;;;1.80;;
16689;SDS011;8458;52.220;9.884;2022-08-05T14:39:30;1.87;;;1.67;;
16689;SDS011;8458;52.220;9.884;2022-08-05T14:41:56;1.80;;;1.70;;
16689;SDS011;8458;52.220;9.884;2022-08-05T14:44:23;1.50;;;1.40;;
16689;SDS011;8458;52.220;9.884;2022-08-05T14:46:49;1.40;;;1.30;;
16689;SDS011;8458;52.220;9.884;2022-08-05T14:49:17;1.50;;;1.40;;
16689;SDS011;8458;52.220;9.884;2022-08-05T14:51:44;1.77;;;1.67;;
16689;SDS011;8458;52.220;9.884;2022-08-05T14:54:10;1.70;;;1.60;;
16689;SDS011;8458;52.220;9.884;2022-08-05T14:56:37;1.50;;;1.40;;
16689;SDS011;8458;52.220;9.884;2022-08-05T14:59:04;1.77;;;1.47;;
16689;SDS011;8458;52.220;9.884;2022-08-05T15:01:30;1.40;;;1.30;;
16689;SDS011;8458;52.220;9.884;2022-08-05T15:03:57;2.03;;;1.50;;
16689;SDS011;8458;52.220;9.884;2022-08-05T15:06:25;1.20;;;1.10;;
16689;SDS011;8458;52.220;9.884;2022-08-05T15:08:53;1.97;;;1.30;;